40J

Perry-Foley Airport

Perry, Florida, USA
METAR K40J 121855Z AUTO 25004KT 10SM CLR 15/02 A3027 RMK AO2 T01500018
Observed Flight Rules
Dec-12 @ 18:55 UTC (19 minutes ago) Visual Flight Rules
Wind Visibility Clouds
250° at 4 knots 10 miles
  • Clear skies
Temperatures Readings
Current 15°C / 59°F
Dewpoint 2°C / 36°F
Humidity 42%
Altimeter 30.27" Hg
Pressure 1025 hPa
Elevation 13
METAR K40J 121855Z AUTO 25004KT 10SM CLR 15/02 A3027 RMK AO2 T01500018
Observed Flight Rules
Dec-12 @ 18:55 UTC
(19 minutes ago)
VFR
Wind Visibility
250° at 4 knots 10 miles
Clouds
  • Clear skies
Temperature Dewpoint
15°C / 59°F 2°C / 36°F
Humidity Altimeter Pressure
42% 30.27" Hg 1025 hPa